createdAt,value
2023-01-19T00:00:56.805Z,26.35
2023-01-19T00:03:23.547Z,26.20
2023-01-19T00:05:50.295Z,27.77
2023-01-19T00:08:17.578Z,24.60
2023-01-19T00:10:51.085Z,26.45
2023-01-19T00:13:18.220Z,27.55
2023-01-19T00:15:45.534Z,26.25
2023-01-19T00:18:12.367Z,29.80
2023-01-19T00:20:40.482Z,27.73
2023-01-19T00:23:08.188Z,28.85
2023-01-19T00:25:35.811Z,27.38
2023-01-19T00:28:02.577Z,29.40
2023-01-19T00:30:29.679Z,28.35
2023-01-19T00:32:56.629Z,27.85
2023-01-19T00:35:23.401Z,28.48
2023-01-19T00:37:50.152Z,26.88
2023-01-19T00:40:17.785Z,28.95
2023-01-19T00:42:44.775Z,26.33
2023-01-19T00:45:16.843Z,27.92
2023-01-19T00:47:43.625Z,26.08
2023-01-19T00:50:13.090Z,26.50
2023-01-19T00:52:40.930Z,29.27
2023-01-19T00:55:09.577Z,31.75
2023-01-19T00:57:36.336Z,30.38
2023-01-19T01:00:06.455Z,29.02
2023-01-19T01:02:34.101Z,30.95
2023-01-19T01:05:02.897Z,34.50
2023-01-19T01:07:31.024Z,33.05
2023-01-19T01:09:58.394Z,36.22
2023-01-19T01:12:25.376Z,35.42
2023-01-19T01:14:52.097Z,34.85
2023-01-19T01:17:25.066Z,34.60
2023-01-19T01:19:52.783Z,33.30
2023-01-19T01:22:19.648Z,33.67
2023-01-19T01:24:46.568Z,32.47
2023-01-19T01:27:13.449Z,32.20
2023-01-19T01:29:41.305Z,35.67
2023-01-19T01:32:08.830Z,36.60
2023-01-19T01:34:35.752Z,39.22
2023-01-19T01:37:02.968Z,37.92
2023-01-19T01:39:29.864Z,36.33
2023-01-19T01:41:58.647Z,37.00
2023-01-19T01:44:49.543Z,37.50
2023-01-19T01:47:38.539Z,37.45
2023-01-19T01:50:17.352Z,36.83
2023-01-19T01:53:06.387Z,37.53
2023-01-19T01:55:38.051Z,36.08
2023-01-19T01:58:06.193Z,34.85
2023-01-19T02:00:54.590Z,36.53
2023-01-19T02:03:24.788Z,34.28
2023-01-19T02:05:53.643Z,34.80
2023-01-19T02:08:47.086Z,32.30
2023-01-19T02:11:32.995Z,35.28
2023-01-19T02:13:59.842Z,34.33
2023-01-19T02:16:26.642Z,35.42
2023-01-19T02:18:53.407Z,35.15
2023-01-19T02:21:33.930Z,35.92
2023-01-19T02:24:03.251Z,37.92
2023-01-19T02:26:42.745Z,36.03
2023-01-19T02:29:12.459Z,37.70
2023-01-19T02:31:42.714Z,39.17
2023-01-19T02:34:12.912Z,36.25
2023-01-19T02:36:54.963Z,34.50
2023-01-19T02:39:39.376Z,35.35
2023-01-19T02:42:17.190Z,34.33
2023-01-19T02:44:47.129Z,35.70
2023-01-19T02:47:15.016Z,36.95
2023-01-19T02:49:41.815Z,35.38
2023-01-19T02:52:15.967Z,35.05
2023-01-19T02:55:15.553Z,35.67
2023-01-19T02:58:12.009Z,37.00
2023-01-19T03:01:08.662Z,35.20
2023-01-19T03:03:43.728Z,36.38
2023-01-19T03:06:33.122Z,36.40
2023-01-19T03:09:50.248Z,37.58
2023-01-19T03:12:46.145Z,37.92
2023-01-19T03:15:18.912Z,38.60
2023-01-19T03:17:50.356Z,39.50
2023-01-19T03:20:22.898Z,37.90
2023-01-19T03:22:55.942Z,39.20
2023-01-19T03:25:24.480Z,40.55
2023-01-19T03:27:54.699Z,41.58
2023-01-19T03:30:27.292Z,41.58
2023-01-19T03:33:03.404Z,42.53
2023-01-19T03:35:33.912Z,40.90
2023-01-19T03:38:03.193Z,42.38
2023-01-19T03:40:33.131Z,41.40
2023-01-19T03:43:02.727Z,42.35
2023-01-19T03:45:33.507Z,41.90
2023-01-19T03:48:00.496Z,44.17
2023-01-19T03:50:30.533Z,45.13
2023-01-19T03:53:14.137Z,42.88
2023-01-19T03:55:45.512Z,42.00
2023-01-19T03:58:13.308Z,42.42
2023-01-19T04:00:41.647Z,41.08
2023-01-19T04:03:13.704Z,41.80
2023-01-19T04:05:40.529Z,40.72
2023-01-19T04:08:07.404Z,42.33
2023-01-19T04:10:34.282Z,39.50
2023-01-19T04:13:02.799Z,39.95
2023-01-19T04:15:30.757Z,42.53
2023-01-19T04:18:00.822Z,40.40
2023-01-19T04:20:28.443Z,39.85
2023-01-19T04:22:59.656Z,42.92
2023-01-19T04:25:27.875Z,46.67
2023-01-19T04:27:55.390Z,42.75
2023-01-19T04:30:22.877Z,41.15
2023-01-19T04:32:49.743Z,43.03
2023-01-19T04:35:17.123Z,41.75
2023-01-19T04:37:47.343Z,41.10
2023-01-19T04:40:16.349Z,43.47
2023-01-19T04:42:45.050Z,42.08
2023-01-19T04:45:15.432Z,42.40
2023-01-19T04:47:45.057Z,41.33
2023-01-19T04:50:12.499Z,41.77
2023-01-19T04:52:39.513Z,38.65
2023-01-19T04:55:07.500Z,42.95
2023-01-19T04:57:34.637Z,41.15
2023-01-19T05:00:01.677Z,40.13
2023-01-19T05:02:28.445Z,38.85
2023-01-19T05:04:55.332Z,40.20
2023-01-19T05:07:23.845Z,39.35
2023-01-19T05:09:50.839Z,39.22
2023-01-19T05:12:17.800Z,39.60
2023-01-19T05:14:44.780Z,41.03
2023-01-19T05:17:13.746Z,44.38
2023-01-19T05:19:43.460Z,44.60
2023-01-19T05:22:15.930Z,43.67
2023-01-19T05:24:56.725Z,44.95
2023-01-19T05:30:23.901Z,42.30
2023-01-19T05:33:28.835Z,45.22
2023-01-19T05:36:26.873Z,44.00
2023-01-19T05:43:43.687Z,43.40
2023-01-19T05:49:18.970Z,45.72
2023-01-19T05:53:52.608Z,45.28
2023-01-19T05:58:38.309Z,46.53
2023-01-19T06:01:13.683Z,46.92
2023-01-19T06:03:42.243Z,48.35
2023-01-19T06:06:10.566Z,47.85
2023-01-19T06:08:37.506Z,46.47
2023-01-19T06:11:07.474Z,46.55
2023-01-19T06:13:34.729Z,45.67
2023-01-19T06:16:02.644Z,43.22
2023-01-19T06:18:30.297Z,41.30
2023-01-19T06:21:00.101Z,43.22
2023-01-19T06:23:29.709Z,45.50
2023-01-19T06:25:56.604Z,41.05
2023-01-19T06:28:33.467Z,41.80
2023-01-19T06:31:00.745Z,39.95
2023-01-19T06:33:28.366Z,40.83
2023-01-19T06:35:55.816Z,41.08
2023-01-19T06:38:27.041Z,40.15
2023-01-19T06:40:59.859Z,38.78
2023-01-19T06:43:27.160Z,40.28
2023-01-19T06:45:54.970Z,40.03
2023-01-19T06:48:22.186Z,42.25
2023-01-19T06:50:50.197Z,40.05
2023-01-19T06:53:21.398Z,41.47
2023-01-19T06:55:49.715Z,40.22
2023-01-19T06:58:16.883Z,38.75
2023-01-19T07:00:43.792Z,42.10
2023-01-19T07:03:19.857Z,42.42
2023-01-19T07:05:47.197Z,41.58
2023-01-19T07:08:15.827Z,42.67
2023-01-19T07:11:26.317Z,44.55
2023-01-19T07:13:30.320Z,42.92
2023-01-19T07:15:57.200Z,44.80
2023-01-19T07:18:24.029Z,43.83
2023-01-19T07:20:51.657Z,45.08
2023-01-19T07:23:19.650Z,53.13
2023-01-19T07:25:46.687Z,65.20
2023-01-19T07:28:15.769Z,63.47
2023-01-19T07:30:44.334Z,62.15
2023-01-19T07:33:11.221Z,59.72
2023-01-19T07:35:38.607Z,61.55
2023-01-19T07:38:05.429Z,59.78
2023-01-19T07:40:33.492Z,59.28
2023-01-19T07:43:00.792Z,60.83
2023-01-19T07:45:28.108Z,60.20
2023-01-19T07:47:54.948Z,63.47
2023-01-19T07:50:24.594Z,63.10
2023-01-19T07:52:54.355Z,56.20
2023-01-19T07:55:22.128Z,56.77
2023-01-19T07:57:52.305Z,57.15
2023-01-19T08:00:22.805Z,55.15
2023-01-19T08:02:52.284Z,54.10
2023-01-19T08:05:20.318Z,57.78
2023-01-19T08:07:47.495Z,61.40
2023-01-19T08:10:15.534Z,64.45
2023-01-19T08:12:42.965Z,61.53
2023-01-19T08:15:10.757Z,67.93
2023-01-19T08:17:39.114Z,72.18
2023-01-19T08:20:06.835Z,76.68
2023-01-19T08:22:36.069Z,75.88
2023-01-19T08:25:06.821Z,73.47
2023-01-19T08:27:35.875Z,70.50
2023-01-19T08:30:05.444Z,76.90
2023-01-19T08:32:35.721Z,75.43
2023-01-19T08:35:02.642Z,76.72
2023-01-19T08:37:29.756Z,73.57
2023-01-19T08:39:56.490Z,76.22
2023-01-19T08:42:23.367Z,74.30
2023-01-19T08:44:58.056Z,75.15
2023-01-19T08:47:25.504Z,73.78
2023-01-19T08:49:52.396Z,74.18
2023-01-19T08:52:19.188Z,74.15
2023-01-19T08:54:46.277Z,71.93
2023-01-19T08:57:15.917Z,69.97
2023-01-19T08:59:45.197Z,65.40
2023-01-19T09:02:14.866Z,64.78
2023-01-19T09:04:44.185Z,52.00
2023-01-19T09:07:11.293Z,54.63
2023-01-19T09:09:43.415Z,59.25
2023-01-19T09:12:11.524Z,55.40
2023-01-19T09:14:39.705Z,43.75
2023-01-19T09:17:07.974Z,35.58
2023-01-19T09:19:36.174Z,39.95
2023-01-19T09:22:05.695Z,45.53
2023-01-19T09:24:32.515Z,49.33
2023-01-19T09:26:59.412Z,50.08
2023-01-19T09:29:26.264Z,50.67
2023-01-19T09:31:53.037Z,46.03
2023-01-19T09:34:20.548Z,37.92
2023-01-19T09:36:47.529Z,33.50
2023-01-19T09:39:14.296Z,35.08
2023-01-19T09:41:49.092Z,36.72
2023-01-19T09:44:36.104Z,37.80
2023-01-19T09:47:13.005Z,35.30
2023-01-19T09:49:44.593Z,38.30
2023-01-19T09:52:14.698Z,37.90
2023-01-19T09:54:52.986Z,32.70
2023-01-19T09:57:21.530Z,30.40
2023-01-19T09:59:50.837Z,23.08
2023-01-19T10:02:57.168Z,20.70
2023-01-19T10:05:29.921Z,18.08
2023-01-19T10:08:12.972Z,16.55
2023-01-19T10:10:43.104Z,14.60
2023-01-19T10:13:21.853Z,17.52
2023-01-19T10:16:38.294Z,16.10
2023-01-19T10:19:17.236Z,17.55
2023-01-19T10:21:46.430Z,17.00
2023-01-19T10:24:38.799Z,16.48
2023-01-19T10:27:15.463Z,19.45
2023-01-19T10:29:42.277Z,18.45
2023-01-19T10:32:22.653Z,18.27
2023-01-19T10:34:51.023Z,17.60
2023-01-19T10:37:17.672Z,18.92
2023-01-19T10:39:56.208Z,19.35
2023-01-19T10:42:23.371Z,22.98
2023-01-19T10:44:50.307Z,22.17
2023-01-19T10:47:23.202Z,21.05
2023-01-19T10:49:51.302Z,20.75
2023-01-19T10:52:24.093Z,22.38
2023-01-19T10:54:51.265Z,22.92
2023-01-19T10:57:43.573Z,21.05
2023-01-19T11:00:37.750Z,21.35
2023-01-19T11:03:21.176Z,22.50
2023-01-19T11:05:47.932Z,25.40
2023-01-19T11:08:31.001Z,23.13
2023-01-19T11:11:05.127Z,22.50
2023-01-19T11:13:32.311Z,19.30
2023-01-19T11:16:20.493Z,19.42
2023-01-19T11:18:52.359Z,18.33
2023-01-19T11:21:26.487Z,20.50
2023-01-19T11:23:58.807Z,18.88
2023-01-19T11:26:34.810Z,17.90
2023-01-19T11:29:03.800Z,18.23
2023-01-19T11:31:34.704Z,21.48
2023-01-19T11:34:21.937Z,20.17
2023-01-19T11:37:02.085Z,14.73
2023-01-19T11:39:47.053Z,14.55
2023-01-19T11:42:15.339Z,14.77
2023-01-19T11:44:57.649Z,16.70
2023-01-19T11:47:43.500Z,15.98
2023-01-19T11:50:13.335Z,18.25
2023-01-19T11:52:50.606Z,18.50
2023-01-19T11:55:35.273Z,18.33
2023-01-19T11:58:04.290Z,21.20
2023-01-19T12:00:42.889Z,22.67
2023-01-19T12:03:09.719Z,22.63
2023-01-19T12:05:40.502Z,23.30
2023-01-19T12:08:17.863Z,23.65
2023-01-19T12:10:47.370Z,22.75
2023-01-19T12:13:25.828Z,22.27
2023-01-19T12:16:07.357Z,23.75
2023-01-19T12:18:44.786Z,25.30
2023-01-19T12:21:11.499Z,21.10
2023-01-19T12:24:16.397Z,21.98
2023-01-19T12:26:54.429Z,21.63
2023-01-19T12:29:24.868Z,23.67
2023-01-19T12:32:13.423Z,22.95
2023-01-19T12:34:45.095Z,23.08
2023-01-19T12:37:39.575Z,22.73
2023-01-19T12:40:27.922Z,24.35
2023-01-19T12:43:03.805Z,22.30
2023-01-19T12:45:39.824Z,23.20
2023-01-19T12:48:24.097Z,22.38
2023-01-19T12:50:51.084Z,22.75
2023-01-19T12:53:21.186Z,20.45
2023-01-19T12:55:59.921Z,21.90
2023-01-19T12:58:27.166Z,20.88
2023-01-19T13:01:18.892Z,22.90
2023-01-19T13:04:09.337Z,20.63
2023-01-19T13:06:48.297Z,18.55
2023-01-19T13:09:35.415Z,19.40
2023-01-19T13:12:19.513Z,17.40
2023-01-19T13:14:46.317Z,17.45
2023-01-19T13:17:24.401Z,20.85
2023-01-19T13:20:22.274Z,24.23
2023-01-19T13:23:17.089Z,24.25
2023-01-19T13:25:49.183Z,21.50
2023-01-19T13:28:18.771Z,20.63
2023-01-19T13:30:55.318Z,21.88
2023-01-19T13:33:25.226Z,18.48
2023-01-19T13:35:54.685Z,19.33
2023-01-19T13:38:23.327Z,18.98
2023-01-19T13:40:50.839Z,17.40
2023-01-19T13:43:32.516Z,18.88
2023-01-19T13:46:00.425Z,18.92
2023-01-19T13:48:27.947Z,16.35
2023-01-19T13:51:07.050Z,19.85
2023-01-19T13:53:34.628Z,20.50
2023-01-19T13:56:18.223Z,21.63
2023-01-19T13:58:58.041Z,41.50
2023-01-19T14:01:28.696Z,36.88
2023-01-19T14:03:55.955Z,54.58
2023-01-19T14:06:43.993Z,41.03
2023-01-19T14:09:20.183Z,74.40
2023-01-19T14:12:05.191Z,47.22
2023-01-19T14:14:32.603Z,32.28
2023-01-19T14:16:59.585Z,25.30
2023-01-19T14:19:26.415Z,25.05
2023-01-19T14:22:02.056Z,20.92
2023-01-19T14:24:32.003Z,18.42
2023-01-19T14:27:19.287Z,19.25
2023-01-19T14:29:50.016Z,18.85
2023-01-19T14:35:12.433Z,21.08
2023-01-19T14:37:47.543Z,21.65
2023-01-19T14:40:20.227Z,24.75
2023-01-19T14:42:54.693Z,21.98
2023-01-19T14:45:25.306Z,22.33
2023-01-19T14:50:30.755Z,24.70
2023-01-19T14:53:04.261Z,30.48
2023-01-19T14:55:50.775Z,48.60
2023-01-19T14:58:19.562Z,37.75
2023-01-19T15:00:47.619Z,53.03
2023-01-19T15:03:14.833Z,74.20
2023-01-19T15:05:46.460Z,48.15
2023-01-19T15:08:23.250Z,50.78
2023-01-19T15:10:50.051Z,62.42
2023-01-19T15:13:22.825Z,54.42
2023-01-19T15:15:49.988Z,53.65
2023-01-19T15:18:26.341Z,50.50
2023-01-19T15:27:45.952Z,50.28
2023-01-19T15:30:21.644Z,62.70
2023-01-19T15:32:48.526Z,55.63
2023-01-19T15:35:23.211Z,58.08
2023-01-19T15:37:50.781Z,50.45
2023-01-19T15:40:19.372Z,56.15
2023-01-19T15:42:46.748Z,57.13
2023-01-19T15:45:34.061Z,47.30
2023-01-19T15:48:10.300Z,48.05
2023-01-19T15:50:41.165Z,50.20
2023-01-19T15:53:11.983Z,53.28
2023-01-19T15:55:42.386Z,49.33
2023-01-19T15:58:09.263Z,47.85
2023-01-19T16:00:36.500Z,44.90
2023-01-19T16:03:03.598Z,44.85
2023-01-19T16:05:42.583Z,42.30
2023-01-19T16:08:11.462Z,44.55
2023-01-19T16:10:38.429Z,43.67
2023-01-19T16:13:05.135Z,43.38
2023-01-19T16:15:36.361Z,42.75
2023-01-19T16:18:05.819Z,45.42
2023-01-19T16:20:32.745Z,41.40
2023-01-19T16:23:14.603Z,44.15
2023-01-19T16:25:42.418Z,42.85
2023-01-19T16:28:09.272Z,39.67
2023-01-19T16:30:41.082Z,46.08
2023-01-19T16:33:16.870Z,44.25
2023-01-19T16:35:45.054Z,45.30
2023-01-19T16:38:14.598Z,44.70
2023-01-19T16:40:44.448Z,44.13
2023-01-19T16:43:12.047Z,43.25
2023-01-19T16:46:00.431Z,37.80
2023-01-19T16:48:27.973Z,41.83
2023-01-19T16:51:21.084Z,41.78
2023-01-19T16:53:50.318Z,40.05
2023-01-19T16:56:23.098Z,40.13
2023-01-19T16:59:29.382Z,42.97
2023-01-19T17:01:47.023Z,42.53
2023-01-19T17:04:14.525Z,43.97
2023-01-19T17:06:41.462Z,61.70
2023-01-19T17:09:09.603Z,48.78
2023-01-19T17:11:46.196Z,132.43
2023-01-19T17:14:15.716Z,48.05
2023-01-19T17:16:43.877Z,46.78
2023-01-19T17:19:15.278Z,40.95
2023-01-19T17:21:48.937Z,42.75
2023-01-19T17:24:16.972Z,40.08
2023-01-19T17:26:47.520Z,35.80
2023-01-19T17:29:15.060Z,36.33
2023-01-19T17:31:44.108Z,38.75
2023-01-19T17:34:13.638Z,37.42
2023-01-19T17:36:41.180Z,41.08
2023-01-19T17:39:31.913Z,41.08
2023-01-19T17:44:27.770Z,36.70
2023-01-19T17:46:59.908Z,37.55
2023-01-19T17:49:29.721Z,43.47
2023-01-19T17:51:59.359Z,41.17
2023-01-19T17:54:28.715Z,51.13
2023-01-19T17:56:57.493Z,44.47
2023-01-19T17:59:27.121Z,42.72
2023-01-19T18:01:54.701Z,41.80
2023-01-19T18:04:21.751Z,39.72
2023-01-19T18:06:50.232Z,64.75
2023-01-19T18:09:17.201Z,37.97
2023-01-19T18:11:51.664Z,40.67
2023-01-19T18:14:23.685Z,43.85
2023-01-19T18:16:50.507Z,42.92
2023-01-19T18:19:24.615Z,40.22
2023-01-19T18:21:54.473Z,39.13
2023-01-19T18:24:23.795Z,42.88
2023-01-19T18:26:50.809Z,41.05
2023-01-19T18:29:20.706Z,42.10
2023-01-19T18:31:54.970Z,36.35
2023-01-19T18:34:25.085Z,65.65
2023-01-19T18:36:51.940Z,49.47
2023-01-19T18:39:20.959Z,45.72
2023-01-19T18:41:50.101Z,40.22
2023-01-19T18:44:23.483Z,38.63
2023-01-19T18:46:50.426Z,48.00
2023-01-19T18:49:24.965Z,41.60
2023-01-19T18:52:01.090Z,38.47
2023-01-19T18:54:27.958Z,42.20
2023-01-19T18:56:57.079Z,40.33
2023-01-19T18:59:23.860Z,43.63
2023-01-19T19:02:02.718Z,44.45
2023-01-19T19:04:29.476Z,38.25
2023-01-19T19:06:59.104Z,39.33
2023-01-19T19:09:25.900Z,35.97
2023-01-19T19:11:59.660Z,38.30
2023-01-19T19:14:26.620Z,35.15
2023-01-19T19:17:13.640Z,32.10
2023-01-19T19:19:40.374Z,33.92
2023-01-19T19:22:07.301Z,34.38
2023-01-19T19:24:34.114Z,36.40
2023-01-19T19:27:04.251Z,38.15
2023-01-19T19:29:31.422Z,40.22
2023-01-19T19:31:58.213Z,40.75
2023-01-19T19:34:30.137Z,44.53
2023-01-19T19:36:56.893Z,43.45
2023-01-19T19:39:32.639Z,39.42
2023-01-19T19:42:02.002Z,36.70
2023-01-19T19:44:28.878Z,36.28
2023-01-19T19:47:04.432Z,34.50
2023-01-19T19:49:31.263Z,32.28
2023-01-19T19:52:06.830Z,31.25
2023-01-19T19:54:33.570Z,29.73
2023-01-19T19:57:05.580Z,28.42
2023-01-19T19:59:40.403Z,29.52
2023-01-19T20:02:12.652Z,30.58
2023-01-19T20:04:39.922Z,29.90
2023-01-19T20:07:10.447Z,32.20
2023-01-19T20:12:19.714Z,30.67
2023-01-19T20:14:47.854Z,34.75
2023-01-19T20:17:14.874Z,30.63
2023-01-19T20:19:41.914Z,34.25
2023-01-19T20:22:10.726Z,30.08
2023-01-19T20:24:43.471Z,30.55
2023-01-19T20:27:11.007Z,30.27
2023-01-19T20:29:40.802Z,30.05
2023-01-19T20:32:08.383Z,29.57
2023-01-19T20:34:42.363Z,31.05
2023-01-19T20:37:17.925Z,29.40
2023-01-19T20:39:45.477Z,32.80
2023-01-19T20:42:18.145Z,33.60
2023-01-19T20:44:47.509Z,29.33
2023-01-19T20:47:14.674Z,29.33
2023-01-19T20:49:45.975Z,30.35
2023-01-19T20:52:13.018Z,31.08
2023-01-19T20:54:40.046Z,30.27
2023-01-19T20:57:06.903Z,30.88
2023-01-19T20:59:36.894Z,30.90
2023-01-19T21:02:06.034Z,32.00
2023-01-19T21:04:32.903Z,33.92
2023-01-19T21:06:59.606Z,31.25
2023-01-19T21:09:26.354Z,30.13
2023-01-19T21:11:55.889Z,32.13
2023-01-19T21:14:23.945Z,28.85
2023-01-19T21:16:50.695Z,29.98
2023-01-19T21:19:18.744Z,30.83
2023-01-19T21:21:45.596Z,28.73
2023-01-19T21:24:12.347Z,31.67
2023-01-19T21:26:39.334Z,32.80
2023-01-19T21:29:06.041Z,32.65
2023-01-19T21:31:32.866Z,30.75
2023-01-19T21:33:59.977Z,30.30
2023-01-19T21:36:27.610Z,30.52
2023-01-19T21:39:00.219Z,31.05
2023-01-19T21:41:28.489Z,32.53
2023-01-19T21:43:55.261Z,31.70
2023-01-19T21:46:32.297Z,31.52
2023-01-19T21:49:04.319Z,31.77
2023-01-19T21:51:33.745Z,32.40
2023-01-19T21:54:01.497Z,32.92
2023-01-19T21:56:29.171Z,30.42
2023-01-19T21:58:57.090Z,33.03
2023-01-19T22:01:24.559Z,32.00
2023-01-19T22:03:56.122Z,31.10
2023-01-19T22:06:26.055Z,31.63
2023-01-19T22:08:55.154Z,32.88
2023-01-19T22:11:24.994Z,33.20
2023-01-19T22:13:52.075Z,33.70
2023-01-19T22:16:21.906Z,34.35
2023-01-19T22:18:59.643Z,33.37
2023-01-19T22:21:31.829Z,34.30
2023-01-19T22:24:00.759Z,35.88
2023-01-19T22:26:34.495Z,31.10
2023-01-19T22:29:02.987Z,34.45
2023-01-19T22:31:30.754Z,34.15
2023-01-19T22:34:00.646Z,33.83
2023-01-19T22:36:32.528Z,32.28
2023-01-19T22:39:03.837Z,29.95
2023-01-19T22:41:41.347Z,32.33
2023-01-19T22:44:11.988Z,33.15
2023-01-19T22:49:09.126Z,31.70
2023-01-19T22:51:36.196Z,31.05
2023-01-19T22:54:03.339Z,32.92
2023-01-19T22:56:32.306Z,33.80
2023-01-19T22:59:00.121Z,34.70
2023-01-19T23:01:33.883Z,32.28
2023-01-19T23:04:04.613Z,33.05
2023-01-19T23:06:34.515Z,34.30
2023-01-19T23:09:04.525Z,35.20
2023-01-19T23:11:42.574Z,28.95
2023-01-19T23:14:13.658Z,30.38
2023-01-19T23:16:40.429Z,30.77
2023-01-19T23:19:07.575Z,30.08
2023-01-19T23:21:34.449Z,30.25
2023-01-19T23:24:04.124Z,31.35
2023-01-19T23:26:37.995Z,30.60
2023-01-19T23:29:08.372Z,30.77
2023-01-19T23:31:37.125Z,30.58
2023-01-19T23:34:07.117Z,31.27
2023-01-19T23:36:35.720Z,32.65
2023-01-19T23:39:14.561Z,31.77
2023-01-19T23:41:41.427Z,31.23
2023-01-19T23:44:08.389Z,31.20
2023-01-19T23:46:35.612Z,29.13
2023-01-19T23:49:02.435Z,27.73
2023-01-19T23:51:31.130Z,27.35
2023-01-19T23:54:00.498Z,27.48
2023-01-19T23:56:28.639Z,26.52
2023-01-19T23:59:00.166Z,30.35
